CYEK

Arviat Airport

Arviat, Canada
TAF CYEK 221138Z 2212/2224 27005KT P6SM SCT120 BECMG 2214/2216 25010KT BKN060 RMK FCST BASED ON AUTO OBS. NXT FCST BY 221800Z
Issued Valid From Valid To
Jan-22 @ 11:38 UTC
(5 hours ago)
Jan-22 @ 12:00 UTC
(5 hours ago)
Jan-23 @ 00:00 UTC
(in 7 hours)
Expired Click to View Jan-22 @ 12:00 to Jan-22 @ 14:00
TAF CYEK 221138Z 2212/2224 27005KT P6SM SCT120
Wind Visibility Clouds
270° at 5 knots Greater than 6 miles
  • Scattered at 12,000' AGL
Becoming Jan-22 @ 14:00 to Jan-23 @ 00:00
BECMG 2214/2216 25010KT BKN060 RMK FCST BASED ON AUTO OBS. NXT FCST BY 221800Z
Wind Visibility Clouds
250° at 10 knots Greater than 6 miles
  • Broken at 6,000' AGL
TAF CYEK 221138Z 2212/2224 27005KT P6SM SCT120 BECMG 2214/2216 25010KT BKN060 RMK FCST BASED ON AUTO OBS. NXT FCST BY 221800Z
Issued Jan-22 @ 11:38 UTC
(5 hours ago)
Valid From Jan-22 @ 12:00 UTC
(5 hours ago)
Valid To Jan-23 @ 00:00 UTC
(in 7 hours)
Jan-22 @ 12:00 - Jan-22 @ 14:00
Wind Visibility
270° at 5 knots Greater than 6 miles
Clouds
  • Scattered at 12,000' AGL
Becoming Jan-22 @ 14:00 - Jan-23 @ 00:00
Wind Visibility
250° at 10 knots Greater than 6 miles
Clouds
  • Broken at 6,000' AGL